sensor_id;sensor_type;location;lat;lon;timestamp;P1;durP1;ratioP1;P2;durP2;ratioP2
27833;SDS011;15200;50.570;7.244;2023-03-14T00:01:39;5.00;;;1.10;;
27833;SDS011;15200;50.570;7.244;2023-03-14T00:04:06;6.42;;;1.37;;
27833;SDS011;15200;50.570;7.244;2023-03-14T00:06:34;4.12;;;1.00;;
27833;SDS011;15200;50.570;7.244;2023-03-14T00:09:02;3.30;;;1.05;;
27833;SDS011;15200;50.570;7.244;2023-03-14T00:11:29;6.80;;;1.17;;
27833;SDS011;15200;50.570;7.244;2023-03-14T00:13:57;6.12;;;1.30;;
27833;SDS011;15200;50.570;7.244;2023-03-14T00:16:26;4.25;;;0.70;;
27833;SDS011;15200;50.570;7.244;2023-03-14T00:18:53;3.58;;;0.90;;
27833;SDS011;15200;50.570;7.244;2023-03-14T00:21:20;4.83;;;0.80;;
27833;SDS011;15200;50.570;7.244;2023-03-14T00:23:51;3.25;;;1.15;;
27833;SDS011;15200;50.570;7.244;2023-03-14T00:26:18;3.17;;;0.62;;
27833;SDS011;15200;50.570;7.244;2023-03-14T00:28:46;6.33;;;1.60;;
27833;SDS011;15200;50.570;7.244;2023-03-14T00:31:14;3.02;;;0.78;;
27833;SDS011;15200;50.570;7.244;2023-03-14T00:33:42;6.05;;;1.15;;
27833;SDS011;15200;50.570;7.244;2023-03-14T00:36:16;3.75;;;1.17;;
27833;SDS011;15200;50.570;7.244;2023-03-14T00:38:39;4.08;;;1.15;;
27833;SDS011;15200;50.570;7.244;2023-03-14T00:41:08;5.25;;;1.52;;
27833;SDS011;15200;50.570;7.244;2023-03-14T00:43:35;2.25;;;1.15;;
27833;SDS011;15200;50.570;7.244;2023-03-14T00:46:03;5.05;;;1.45;;
27833;SDS011;15200;50.570;7.244;2023-03-14T00:48:30;5.22;;;1.67;;
27833;SDS011;15200;50.570;7.244;2023-03-14T00:50:57;3.65;;;1.30;;
27833;SDS011;15200;50.570;7.244;2023-03-14T00:53:25;5.05;;;1.00;;
27833;SDS011;15200;50.570;7.244;2023-03-14T00:55:52;4.30;;;1.17;;
27833;SDS011;15200;50.570;7.244;2023-03-14T00:58:19;2.98;;;0.90;;
27833;SDS011;15200;50.570;7.244;2023-03-14T01:00:47;5.58;;;1.20;;
27833;SDS011;15200;50.570;7.244;2023-03-14T01:03:14;5.53;;;1.25;;
27833;SDS011;15200;50.570;7.244;2023-03-14T01:05:42;4.55;;;1.42;;
27833;SDS011;15200;50.570;7.244;2023-03-14T01:08:09;4.47;;;1.35;;
27833;SDS011;15200;50.570;7.244;2023-03-14T01:10:38;5.15;;;1.27;;
27833;SDS011;15200;50.570;7.244;2023-03-14T01:13:06;7.05;;;1.47;;
27833;SDS011;15200;50.570;7.244;2023-03-14T01:15:34;4.03;;;1.00;;
27833;SDS011;15200;50.570;7.244;2023-03-14T01:18:02;5.28;;;1.10;;
27833;SDS011;15200;50.570;7.244;2023-03-14T01:20:29;6.03;;;1.82;;
27833;SDS011;15200;50.570;7.244;2023-03-14T01:22:56;3.35;;;1.17;;
27833;SDS011;15200;50.570;7.244;2023-03-14T01:25:24;4.65;;;1.22;;
27833;SDS011;15200;50.570;7.244;2023-03-14T01:27:51;3.17;;;0.98;;
27833;SDS011;15200;50.570;7.244;2023-03-14T01:30:18;2.02;;;1.10;;
27833;SDS011;15200;50.570;7.244;2023-03-14T01:32:47;5.87;;;1.55;;
27833;SDS011;15200;50.570;7.244;2023-03-14T01:35:15;4.83;;;1.70;;
27833;SDS011;15200;50.570;7.244;2023-03-14T01:37:42;6.12;;;1.30;;
27833;SDS011;15200;50.570;7.244;2023-03-14T01:40:10;7.58;;;1.70;;
27833;SDS011;15200;50.570;7.244;2023-03-14T01:42:44;3.65;;;0.90;;
27833;SDS011;15200;50.570;7.244;2023-03-14T01:47:55;5.37;;;1.10;;
27833;SDS011;15200;50.570;7.244;2023-03-14T01:50:22;6.25;;;1.57;;
27833;SDS011;15200;50.570;7.244;2023-03-14T01:52:49;3.58;;;0.93;;
27833;SDS011;15200;50.570;7.244;2023-03-14T01:55:20;4.25;;;1.40;;
27833;SDS011;15200;50.570;7.244;2023-03-14T01:57:49;6.95;;;1.27;;
27833;SDS011;15200;50.570;7.244;2023-03-14T02:00:18;4.55;;;1.80;;
27833;SDS011;15200;50.570;7.244;2023-03-14T02:02:46;4.33;;;1.20;;
27833;SDS011;15200;50.570;7.244;2023-03-14T02:05:15;4.87;;;1.17;;
27833;SDS011;15200;50.570;7.244;2023-03-14T02:07:46;5.22;;;1.20;;
27833;SDS011;15200;50.570;7.244;2023-03-14T02:10:14;5.37;;;1.30;;
27833;SDS011;15200;50.570;7.244;2023-03-14T02:12:45;2.08;;;0.82;;
27833;SDS011;15200;50.570;7.244;2023-03-14T02:15:13;2.42;;;0.82;;
27833;SDS011;15200;50.570;7.244;2023-03-14T02:17:43;1.10;;;0.60;;
27833;SDS011;15200;50.570;7.244;2023-03-14T02:22:44;6.83;;;1.62;;
27833;SDS011;15200;50.570;7.244;2023-03-14T02:25:13;7.00;;;1.42;;
27833;SDS011;15200;50.570;7.244;2023-03-14T02:27:42;4.12;;;1.10;;
27833;SDS011;15200;50.570;7.244;2023-03-14T02:30:18;9.73;;;1.47;;
27833;SDS011;15200;50.570;7.244;2023-03-14T02:32:43;5.90;;;1.15;;
27833;SDS011;15200;50.570;7.244;2023-03-14T02:35:10;5.37;;;1.45;;
27833;SDS011;15200;50.570;7.244;2023-03-14T02:37:41;2.67;;;1.00;;
27833;SDS011;15200;50.570;7.244;2023-03-14T02:40:08;6.75;;;1.12;;
27833;SDS011;15200;50.570;7.244;2023-03-14T02:42:35;8.13;;;1.70;;
27833;SDS011;15200;50.570;7.244;2023-03-14T02:47:34;6.90;;;1.60;;
27833;SDS011;15200;50.570;7.244;2023-03-14T02:50:04;6.60;;;1.32;;
27833;SDS011;15200;50.570;7.244;2023-03-14T02:52:31;4.65;;;1.12;;
27833;SDS011;15200;50.570;7.244;2023-03-14T02:54:59;11.15;;;2.10;;
27833;SDS011;15200;50.570;7.244;2023-03-14T02:57:26;5.83;;;1.12;;
27833;SDS011;15200;50.570;7.244;2023-03-14T02:59:53;9.30;;;1.65;;
27833;SDS011;15200;50.570;7.244;2023-03-14T03:02:21;7.50;;;1.67;;
27833;SDS011;15200;50.570;7.244;2023-03-14T03:04:48;9.83;;;1.20;;
27833;SDS011;15200;50.570;7.244;2023-03-14T03:07:15;10.63;;;2.00;;
27833;SDS011;15200;50.570;7.244;2023-03-14T03:09:43;4.20;;;1.40;;
27833;SDS011;15200;50.570;7.244;2023-03-14T03:12:10;8.18;;;1.77;;
27833;SDS011;15200;50.570;7.244;2023-03-14T03:14:37;6.17;;;1.60;;
27833;SDS011;15200;50.570;7.244;2023-03-14T03:17:05;8.18;;;1.45;;
27833;SDS011;15200;50.570;7.244;2023-03-14T03:19:32;8.33;;;1.65;;
27833;SDS011;15200;50.570;7.244;2023-03-14T03:22:00;8.25;;;1.67;;
27833;SDS011;15200;50.570;7.244;2023-03-14T03:24:27;7.65;;;2.02;;
27833;SDS011;15200;50.570;7.244;2023-03-14T03:26:54;5.83;;;1.82;;
27833;SDS011;15200;50.570;7.244;2023-03-14T03:29:22;6.95;;;1.50;;
27833;SDS011;15200;50.570;7.244;2023-03-14T03:31:49;3.92;;;1.05;;
27833;SDS011;15200;50.570;7.244;2023-03-14T03:34:16;5.55;;;1.57;;
27833;SDS011;15200;50.570;7.244;2023-03-14T03:36:44;6.12;;;1.15;;
27833;SDS011;15200;50.570;7.244;2023-03-14T03:39:11;7.33;;;1.87;;
27833;SDS011;15200;50.570;7.244;2023-03-14T03:41:38;6.72;;;1.85;;
27833;SDS011;15200;50.570;7.244;2023-03-14T03:44:05;5.05;;;1.07;;
27833;SDS011;15200;50.570;7.244;2023-03-14T03:46:33;4.28;;;1.45;;
27833;SDS011;15200;50.570;7.244;2023-03-14T03:49:00;6.20;;;1.40;;
27833;SDS011;15200;50.570;7.244;2023-03-14T03:54:14;5.17;;;0.90;;
27833;SDS011;15200;50.570;7.244;2023-03-14T03:56:41;6.12;;;1.45;;
27833;SDS011;15200;50.570;7.244;2023-03-14T03:59:09;5.00;;;1.47;;
27833;SDS011;15200;50.570;7.244;2023-03-14T04:01:36;6.60;;;1.25;;
27833;SDS011;15200;50.570;7.244;2023-03-14T04:04:03;5.65;;;1.52;;
27833;SDS011;15200;50.570;7.244;2023-03-14T04:06:31;5.45;;;1.30;;
27833;SDS011;15200;50.570;7.244;2023-03-14T04:08:58;4.78;;;0.93;;
27833;SDS011;15200;50.570;7.244;2023-03-14T04:11:26;3.10;;;0.80;;
27833;SDS011;15200;50.570;7.244;2023-03-14T04:13:53;3.05;;;0.88;;
27833;SDS011;15200;50.570;7.244;2023-03-14T04:16:21;4.25;;;1.50;;
27833;SDS011;15200;50.570;7.244;2023-03-14T04:18:49;5.45;;;1.12;;
27833;SDS011;15200;50.570;7.244;2023-03-14T04:21:17;5.45;;;1.07;;
27833;SDS011;15200;50.570;7.244;2023-03-14T04:23:44;3.50;;;0.60;;
27833;SDS011;15200;50.570;7.244;2023-03-14T04:26:12;1.77;;;0.45;;
27833;SDS011;15200;50.570;7.244;2023-03-14T04:28:39;3.45;;;0.85;;
27833;SDS011;15200;50.570;7.244;2023-03-14T04:31:07;5.00;;;1.02;;
27833;SDS011;15200;50.570;7.244;2023-03-14T04:33:34;4.62;;;0.93;;
27833;SDS011;15200;50.570;7.244;2023-03-14T04:36:04;0.85;;;0.50;;
27833;SDS011;15200;50.570;7.244;2023-03-14T04:38:31;3.58;;;0.60;;
27833;SDS011;15200;50.570;7.244;2023-03-14T04:40:59;1.47;;;0.50;;
27833;SDS011;15200;50.570;7.244;2023-03-14T04:43:26;1.62;;;0.42;;
27833;SDS011;15200;50.570;7.244;2023-03-14T04:45:54;3.05;;;0.50;;
27833;SDS011;15200;50.570;7.244;2023-03-14T04:48:22;1.55;;;0.33;;
27833;SDS011;15200;50.570;7.244;2023-03-14T04:50:50;0.65;;;0.40;;
27833;SDS011;15200;50.570;7.244;2023-03-14T04:53:17;1.22;;;0.30;;
27833;SDS011;15200;50.570;7.244;2023-03-14T04:55:51;1.55;;;0.40;;
27833;SDS011;15200;50.570;7.244;2023-03-14T04:58:19;1.65;;;0.35;;
27833;SDS011;15200;50.570;7.244;2023-03-14T05:00:47;1.60;;;0.30;;
27833;SDS011;15200;50.570;7.244;2023-03-14T05:03:15;2.12;;;0.30;;
27833;SDS011;15200;50.570;7.244;2023-03-14T05:05:42;2.55;;;0.50;;
27833;SDS011;15200;50.570;7.244;2023-03-14T05:08:09;1.62;;;0.40;;
27833;SDS011;15200;50.570;7.244;2023-03-14T05:10:37;0.75;;;0.30;;
27833;SDS011;15200;50.570;7.244;2023-03-14T05:13:04;1.00;;;0.20;;
27833;SDS011;15200;50.570;7.244;2023-03-14T05:15:31;0.65;;;0.23;;
27833;SDS011;15200;50.570;7.244;2023-03-14T05:17:59;0.75;;;0.20;;
27833;SDS011;15200;50.570;7.244;2023-03-14T05:20:26;0.10;;;0.10;;
27833;SDS011;15200;50.570;7.244;2023-03-14T05:22:53;1.30;;;0.20;;
27833;SDS011;15200;50.570;7.244;2023-03-14T05:25:21;0.45;;;0.13;;
27833;SDS011;15200;50.570;7.244;2023-03-14T05:27:48;0.75;;;0.20;;
27833;SDS011;15200;50.570;7.244;2023-03-14T05:30:15;1.35;;;0.30;;
27833;SDS011;15200;50.570;7.244;2023-03-14T05:32:43;0.95;;;0.28;;
27833;SDS011;15200;50.570;7.244;2023-03-14T05:35:10;1.10;;;0.20;;
27833;SDS011;15200;50.570;7.244;2023-03-14T05:37:37;0.55;;;0.10;;
27833;SDS011;15200;50.570;7.244;2023-03-14T05:40:05;1.40;;;0.20;;
27833;SDS011;15200;50.570;7.244;2023-03-14T05:42:32;0.80;;;0.10;;
27833;SDS011;15200;50.570;7.244;2023-03-14T05:45:00;0.17;;;0.17;;
27833;SDS011;15200;50.570;7.244;2023-03-14T05:47:27;0.33;;;0.20;;
27833;SDS011;15200;50.570;7.244;2023-03-14T05:49:55;0.62;;;0.20;;
27833;SDS011;15200;50.570;7.244;2023-03-14T05:52:22;0.50;;;0.30;;
27833;SDS011;15200;50.570;7.244;2023-03-14T05:54:52;0.42;;;0.20;;
27833;SDS011;15200;50.570;7.244;2023-03-14T05:57:19;0.13;;;0.10;;
27833;SDS011;15200;50.570;7.244;2023-03-14T05:59:46;0.17;;;0.17;;
27833;SDS011;15200;50.570;7.244;2023-03-14T06:02:14;1.02;;;0.20;;
27833;SDS011;15200;50.570;7.244;2023-03-14T06:04:41;0.25;;;0.25;;
27833;SDS011;15200;50.570;7.244;2023-03-14T06:07:08;1.47;;;0.20;;
27833;SDS011;15200;50.570;7.244;2023-03-14T06:09:36;0.13;;;0.10;;
27833;SDS011;15200;50.570;7.244;2023-03-14T06:12:03;0.33;;;0.30;;
27833;SDS011;15200;50.570;7.244;2023-03-14T06:14:30;0.82;;;0.20;;
27833;SDS011;15200;50.570;7.244;2023-03-14T06:16:58;0.20;;;0.20;;
27833;SDS011;15200;50.570;7.244;2023-03-14T06:19:28;1.05;;;0.30;;
27833;SDS011;15200;50.570;7.244;2023-03-14T06:21:55;0.62;;;0.13;;
27833;SDS011;15200;50.570;7.244;2023-03-14T06:24:23;0.50;;;0.20;;
27833;SDS011;15200;50.570;7.244;2023-03-14T06:26:50;1.00;;;0.10;;
27833;SDS011;15200;50.570;7.244;2023-03-14T06:29:17;0.47;;;0.20;;
27833;SDS011;15200;50.570;7.244;2023-03-14T06:31:45;0.75;;;0.10;;
27833;SDS011;15200;50.570;7.244;2023-03-14T06:34:12;0.45;;;0.20;;
27833;SDS011;15200;50.570;7.244;2023-03-14T06:36:40;0.35;;;0.20;;
27833;SDS011;15200;50.570;7.244;2023-03-14T06:39:07;0.20;;;0.13;;
27833;SDS011;15200;50.570;7.244;2023-03-14T06:41:34;1.65;;;0.30;;
27833;SDS011;15200;50.570;7.244;2023-03-14T06:44:01;1.32;;;0.30;;
27833;SDS011;15200;50.570;7.244;2023-03-14T06:46:29;2.47;;;0.20;;
27833;SDS011;15200;50.570;7.244;2023-03-14T06:48:56;0.65;;;0.20;;
27833;SDS011;15200;50.570;7.244;2023-03-14T06:51:23;0.30;;;0.23;;
27833;SDS011;15200;50.570;7.244;2023-03-14T06:53:51;1.45;;;0.30;;
27833;SDS011;15200;50.570;7.244;2023-03-14T06:56:18;0.53;;;0.30;;
27833;SDS011;15200;50.570;7.244;2023-03-14T06:58:45;0.50;;;0.30;;
27833;SDS011;15200;50.570;7.244;2023-03-14T07:01:17;0.70;;;0.50;;
27833;SDS011;15200;50.570;7.244;2023-03-14T07:03:46;1.00;;;0.47;;
27833;SDS011;15200;50.570;7.244;2023-03-14T07:06:13;0.30;;;0.30;;
27833;SDS011;15200;50.570;7.244;2023-03-14T07:08:40;0.20;;;0.20;;
27833;SDS011;15200;50.570;7.244;2023-03-14T07:11:08;0.30;;;0.20;;
27833;SDS011;15200;50.570;7.244;2023-03-14T07:13:37;0.85;;;0.10;;
27833;SDS011;15200;50.570;7.244;2023-03-14T07:16:05;0.33;;;0.10;;
27833;SDS011;15200;50.570;7.244;2023-03-14T07:18:33;0.10;;;0.10;;
27833;SDS011;15200;50.570;7.244;2023-03-14T07:21:00;0.17;;;0.10;;
27833;SDS011;15200;50.570;7.244;2023-03-14T07:23:27;0.10;;;0.10;;
27833;SDS011;15200;50.570;7.244;2023-03-14T07:25:56;0.10;;;0.10;;
27833;SDS011;15200;50.570;7.244;2023-03-14T07:28:23;0.78;;;0.13;;
27833;SDS011;15200;50.570;7.244;2023-03-14T07:30:50;0.10;;;0.10;;
27833;SDS011;15200;50.570;7.244;2023-03-14T07:33:17;0.10;;;0.10;;
27833;SDS011;15200;50.570;7.244;2023-03-14T07:35:46;0.20;;;0.20;;
27833;SDS011;15200;50.570;7.244;2023-03-14T07:38:14;0.23;;;0.10;;
27833;SDS011;15200;50.570;7.244;2023-03-14T07:40:42;0.30;;;0.15;;
27833;SDS011;15200;50.570;7.244;2023-03-14T07:43:09;0.10;;;0.10;;
27833;SDS011;15200;50.570;7.244;2023-03-14T07:45:36;2.27;;;0.20;;
27833;SDS011;15200;50.570;7.244;2023-03-14T07:48:03;2.22;;;0.20;;
27833;SDS011;15200;50.570;7.244;2023-03-14T07:50:31;0.10;;;0.10;;
27833;SDS011;15200;50.570;7.244;2023-03-14T07:52:58;0.10;;;0.10;;
27833;SDS011;15200;50.570;7.244;2023-03-14T07:55:25;0.10;;;0.10;;
27833;SDS011;15200;50.570;7.244;2023-03-14T07:57:53;0.10;;;0.10;;
27833;SDS011;15200;50.570;7.244;2023-03-14T08:00:20;0.10;;;0.10;;
27833;SDS011;15200;50.570;7.244;2023-03-14T08:02:47;0.10;;;0.10;;
27833;SDS011;15200;50.570;7.244;2023-03-14T08:05:18;0.10;;;0.10;;
27833;SDS011;15200;50.570;7.244;2023-03-14T08:07:45;0.10;;;0.10;;
27833;SDS011;15200;50.570;7.244;2023-03-14T08:10:12;0.10;;;0.10;;
27833;SDS011;15200;50.570;7.244;2023-03-14T08:12:41;0.15;;;0.10;;
27833;SDS011;15200;50.570;7.244;2023-03-14T08:15:09;0.10;;;0.10;;
27833;SDS011;15200;50.570;7.244;2023-03-14T08:17:36;0.20;;;0.20;;
27833;SDS011;15200;50.570;7.244;2023-03-14T08:20:03;0.10;;;0.10;;
27833;SDS011;15200;50.570;7.244;2023-03-14T08:22:35;0.10;;;0.10;;
27833;SDS011;15200;50.570;7.244;2023-03-14T08:25:03;0.17;;;0.10;;
27833;SDS011;15200;50.570;7.244;2023-03-14T08:27:30;0.25;;;0.10;;
27833;SDS011;15200;50.570;7.244;2023-03-14T08:29:57;0.13;;;0.10;;
27833;SDS011;15200;50.570;7.244;2023-03-14T08:32:25;0.10;;;0.10;;
27833;SDS011;15200;50.570;7.244;2023-03-14T08:34:52;0.10;;;0.10;;
27833;SDS011;15200;50.570;7.244;2023-03-14T08:37:19;0.30;;;0.00;;
27833;SDS011;15200;50.570;7.244;2023-03-14T08:39:47;0.10;;;0.10;;
27833;SDS011;15200;50.570;7.244;2023-03-14T08:42:14;0.10;;;0.10;;
27833;SDS011;15200;50.570;7.244;2023-03-14T08:44:41;0.10;;;0.10;;
27833;SDS011;15200;50.570;7.244;2023-03-14T08:47:09;0.10;;;0.10;;
27833;SDS011;15200;50.570;7.244;2023-03-14T08:49:36;0.35;;;0.10;;
27833;SDS011;15200;50.570;7.244;2023-03-14T08:52:03;0.10;;;0.10;;
27833;SDS011;15200;50.570;7.244;2023-03-14T08:54:31;0.17;;;0.15;;
27833;SDS011;15200;50.570;7.244;2023-03-14T08:56:58;0.10;;;0.10;;
27833;SDS011;15200;50.570;7.244;2023-03-14T08:59:25;0.10;;;0.10;;
27833;SDS011;15200;50.570;7.244;2023-03-14T09:01:53;0.10;;;0.10;;
27833;SDS011;15200;50.570;7.244;2023-03-14T09:04:20;0.10;;;0.10;;
27833;SDS011;15200;50.570;7.244;2023-03-14T09:06:48;0.20;;;0.15;;
27833;SDS011;15200;50.570;7.244;2023-03-14T09:09:15;0.10;;;0.10;;
27833;SDS011;15200;50.570;7.244;2023-03-14T09:11:43;0.50;;;0.20;;
27833;SDS011;15200;50.570;7.244;2023-03-14T09:14:11;0.42;;;0.10;;
27833;SDS011;15200;50.570;7.244;2023-03-14T09:16:38;0.10;;;0.10;;
27833;SDS011;15200;50.570;7.244;2023-03-14T09:19:05;0.10;;;0.10;;
27833;SDS011;15200;50.570;7.244;2023-03-14T09:21:33;0.23;;;0.23;;
27833;SDS011;15200;50.570;7.244;2023-03-14T09:24:00;0.75;;;0.20;;
27833;SDS011;15200;50.570;7.244;2023-03-14T09:26:27;0.20;;;0.20;;
27833;SDS011;15200;50.570;7.244;2023-03-14T09:28:55;0.10;;;0.10;;
27833;SDS011;15200;50.570;7.244;2023-03-14T09:31:23;0.10;;;0.10;;
27833;SDS011;15200;50.570;7.244;2023-03-14T09:33:51;0.33;;;0.20;;
27833;SDS011;15200;50.570;7.244;2023-03-14T09:36:18;0.17;;;0.17;;
27833;SDS011;15200;50.570;7.244;2023-03-14T09:38:45;0.10;;;0.10;;
27833;SDS011;15200;50.570;7.244;2023-03-14T09:41:18;0.10;;;0.10;;
27833;SDS011;15200;50.570;7.244;2023-03-14T09:43:41;0.42;;;0.10;;
27833;SDS011;15200;50.570;7.244;2023-03-14T09:46:10;0.65;;;0.20;;
27833;SDS011;15200;50.570;7.244;2023-03-14T09:48:38;0.10;;;0.10;;
27833;SDS011;15200;50.570;7.244;2023-03-14T09:51:10;0.72;;;0.23;;
27833;SDS011;15200;50.570;7.244;2023-03-14T09:53:37;0.33;;;0.20;;
27833;SDS011;15200;50.570;7.244;2023-03-14T09:56:04;0.20;;;0.20;;
27833;SDS011;15200;50.570;7.244;2023-03-14T09:58:32;0.10;;;0.10;;
27833;SDS011;15200;50.570;7.244;2023-03-14T10:00:59;0.20;;;0.10;;
27833;SDS011;15200;50.570;7.244;2023-03-14T10:03:33;1.20;;;0.30;;
27833;SDS011;15200;50.570;7.244;2023-03-14T10:06:01;0.88;;;0.20;;
27833;SDS011;15200;50.570;7.244;2023-03-14T10:08:28;0.28;;;0.20;;
27833;SDS011;15200;50.570;7.244;2023-03-14T10:10:56;0.20;;;0.20;;
27833;SDS011;15200;50.570;7.244;2023-03-14T10:13:24;0.20;;;0.20;;
27833;SDS011;15200;50.570;7.244;2023-03-14T10:15:58;0.78;;;0.20;;
27833;SDS011;15200;50.570;7.244;2023-03-14T10:18:24;0.33;;;0.20;;
27833;SDS011;15200;50.570;7.244;2023-03-14T10:21:06;0.10;;;0.10;;
27833;SDS011;15200;50.570;7.244;2023-03-14T10:23:33;0.10;;;0.10;;
27833;SDS011;15200;50.570;7.244;2023-03-14T10:26:06;0.17;;;0.17;;
27833;SDS011;15200;50.570;7.244;2023-03-14T10:28:37;0.25;;;0.20;;
27833;SDS011;15200;50.570;7.244;2023-03-14T10:31:02;3.30;;;0.20;;
27833;SDS011;15200;50.570;7.244;2023-03-14T10:33:31;0.35;;;0.30;;
27833;SDS011;15200;50.570;7.244;2023-03-14T10:36:17;0.90;;;0.30;;
27833;SDS011;15200;50.570;7.244;2023-03-14T10:38:43;0.20;;;0.20;;
27833;SDS011;15200;50.570;7.244;2023-03-14T10:41:24;0.25;;;0.20;;
27833;SDS011;15200;50.570;7.244;2023-03-14T10:43:49;0.15;;;0.10;;
27833;SDS011;15200;50.570;7.244;2023-03-14T10:46:17;0.50;;;0.30;;
27833;SDS011;15200;50.570;7.244;2023-03-14T10:48:47;1.00;;;0.50;;
27833;SDS011;15200;50.570;7.244;2023-03-14T10:53:48;0.95;;;0.40;;
27833;SDS011;15200;50.570;7.244;2023-03-14T10:56:20;0.30;;;0.30;;
27833;SDS011;15200;50.570;7.244;2023-03-14T10:58:48;0.30;;;0.30;;
27833;SDS011;15200;50.570;7.244;2023-03-14T11:04:04;4.75;;;0.50;;
27833;SDS011;15200;50.570;7.244;2023-03-14T11:09:26;0.40;;;0.40;;
27833;SDS011;15200;50.570;7.244;2023-03-14T11:11:54;0.62;;;0.50;;
27833;SDS011;15200;50.570;7.244;2023-03-14T11:14:25;2.35;;;1.02;;
27833;SDS011;15200;50.570;7.244;2023-03-14T11:17:15;1.05;;;0.90;;
27833;SDS011;15200;50.570;7.244;2023-03-14T11:25:02;3.52;;;0.80;;
27833;SDS011;15200;50.570;7.244;2023-03-14T11:30:19;0.90;;;0.90;;
27833;SDS011;15200;50.570;7.244;2023-03-14T11:32:57;0.72;;;0.70;;
27833;SDS011;15200;50.570;7.244;2023-03-14T11:35:30;0.70;;;0.70;;
27833;SDS011;15200;50.570;7.244;2023-03-14T11:38:03;1.17;;;1.07;;
27833;SDS011;15200;50.570;7.244;2023-03-14T11:40:28;1.12;;;1.00;;
27833;SDS011;15200;50.570;7.244;2023-03-14T11:45:41;0.80;;;0.78;;
27833;SDS011;15200;50.570;7.244;2023-03-14T11:48:14;0.90;;;0.78;;
27833;SDS011;15200;50.570;7.244;2023-03-14T11:50:41;1.47;;;0.85;;
27833;SDS011;15200;50.570;7.244;2023-03-14T11:53:11;1.22;;;0.60;;
27833;SDS011;15200;50.570;7.244;2023-03-14T11:55:38;0.50;;;0.50;;
27833;SDS011;15200;50.570;7.244;2023-03-14T12:00:45;3.08;;;1.10;;
27833;SDS011;15200;50.570;7.244;2023-03-14T12:08:33;1.77;;;0.93;;
27833;SDS011;15200;50.570;7.244;2023-03-14T12:11:03;0.40;;;0.40;;
27833;SDS011;15200;50.570;7.244;2023-03-14T12:13:36;3.00;;;0.30;;
27833;SDS011;15200;50.570;7.244;2023-03-14T12:16:10;0.53;;;0.47;;
27833;SDS011;15200;50.570;7.244;2023-03-14T12:21:19;0.40;;;0.40;;
27833;SDS011;15200;50.570;7.244;2023-03-14T12:23:51;2.12;;;0.70;;
27833;SDS011;15200;50.570;7.244;2023-03-14T12:26:22;1.40;;;0.30;;
27833;SDS011;15200;50.570;7.244;2023-03-14T12:34:32;2.60;;;0.50;;
27833;SDS011;15200;50.570;7.244;2023-03-14T12:36:56;0.20;;;0.20;;
27833;SDS011;15200;50.570;7.244;2023-03-14T12:39:07;0.85;;;0.53;;
27833;SDS011;15200;50.570;7.244;2023-03-14T12:41:41;0.50;;;0.50;;
27833;SDS011;15200;50.570;7.244;2023-03-14T12:46:57;1.20;;;0.45;;
27833;SDS011;15200;50.570;7.244;2023-03-14T12:49:31;0.82;;;0.30;;
27833;SDS011;15200;50.570;7.244;2023-03-14T12:51:59;1.20;;;0.30;;
27833;SDS011;15200;50.570;7.244;2023-03-14T12:54:29;1.55;;;0.30;;
27833;SDS011;15200;50.570;7.244;2023-03-14T12:59:52;1.65;;;0.30;;
27833;SDS011;15200;50.570;7.244;2023-03-14T13:05:06;4.03;;;0.98;;
27833;SDS011;15200;50.570;7.244;2023-03-14T13:10:24;1.00;;;0.60;;
27833;SDS011;15200;50.570;7.244;2023-03-14T13:12:52;1.10;;;0.55;;
27833;SDS011;15200;50.570;7.244;2023-03-14T13:15:21;0.65;;;0.50;;
27833;SDS011;15200;50.570;7.244;2023-03-14T13:17:49;1.57;;;0.50;;
27833;SDS011;15200;50.570;7.244;2023-03-14T13:20:34;2.33;;;0.50;;
27833;SDS011;15200;50.570;7.244;2023-03-14T13:23:01;1.92;;;0.72;;
27833;SDS011;15200;50.570;7.244;2023-03-14T13:25:29;1.32;;;0.90;;
27833;SDS011;15200;50.570;7.244;2023-03-14T13:27:56;1.87;;;0.62;;
27833;SDS011;15200;50.570;7.244;2023-03-14T13:30:28;3.42;;;0.70;;
27833;SDS011;15200;50.570;7.244;2023-03-14T13:32:56;1.60;;;0.80;;
27833;SDS011;15200;50.570;7.244;2023-03-14T13:35:25;2.27;;;0.80;;
27833;SDS011;15200;50.570;7.244;2023-03-14T13:37:53;2.05;;;0.80;;
27833;SDS011;15200;50.570;7.244;2023-03-14T13:40:26;1.85;;;0.80;;
27833;SDS011;15200;50.570;7.244;2023-03-14T13:43:04;2.40;;;0.90;;
27833;SDS011;15200;50.570;7.244;2023-03-14T13:45:31;2.00;;;1.10;;
27833;SDS011;15200;50.570;7.244;2023-03-14T13:48:01;1.12;;;0.82;;
27833;SDS011;15200;50.570;7.244;2023-03-14T13:50:28;2.58;;;1.10;;
27833;SDS011;15200;50.570;7.244;2023-03-14T13:52:56;4.28;;;1.07;;
27833;SDS011;15200;50.570;7.244;2023-03-14T13:55:24;1.40;;;0.90;;
27833;SDS011;15200;50.570;7.244;2023-03-14T13:57:53;1.12;;;1.02;;
27833;SDS011;15200;50.570;7.244;2023-03-14T14:00:25;3.20;;;1.30;;
27833;SDS011;15200;50.570;7.244;2023-03-14T14:02:56;1.23;;;0.80;;
27833;SDS011;15200;50.570;7.244;2023-03-14T14:05:28;1.33;;;1.00;;
27833;SDS011;15200;50.570;7.244;2023-03-14T14:07:55;2.50;;;1.05;;
27833;SDS011;15200;50.570;7.244;2023-03-14T14:10:23;3.00;;;1.32;;
27833;SDS011;15200;50.570;7.244;2023-03-14T14:12:55;2.47;;;1.67;;
27833;SDS011;15200;50.570;7.244;2023-03-14T14:15:22;1.90;;;1.03;;
27833;SDS011;15200;50.570;7.244;2023-03-14T14:20:39;2.10;;;0.90;;
27833;SDS011;15200;50.570;7.244;2023-03-14T14:23:09;1.50;;;1.05;;
27833;SDS011;15200;50.570;7.244;2023-03-14T14:25:36;3.58;;;1.40;;
27833;SDS011;15200;50.570;7.244;2023-03-14T14:28:15;1.45;;;1.20;;
27833;SDS011;15200;50.570;7.244;2023-03-14T14:30:43;2.00;;;1.17;;
27833;SDS011;15200;50.570;7.244;2023-03-14T14:33:12;2.33;;;1.10;;
27833;SDS011;15200;50.570;7.244;2023-03-14T14:35:39;1.40;;;0.97;;
27833;SDS011;15200;50.570;7.244;2023-03-14T14:38:12;1.90;;;1.20;;
27833;SDS011;15200;50.570;7.244;2023-03-14T14:40:44;1.62;;;0.90;;
27833;SDS011;15200;50.570;7.244;2023-03-14T14:43:15;2.10;;;1.07;;
27833;SDS011;15200;50.570;7.244;2023-03-14T14:45:42;1.98;;;0.90;;
27833;SDS011;15200;50.570;7.244;2023-03-14T14:48:10;2.58;;;1.20;;
27833;SDS011;15200;50.570;7.244;2023-03-14T14:50:38;1.80;;;0.83;;
27833;SDS011;15200;50.570;7.244;2023-03-14T14:53:19;3.90;;;0.90;;
27833;SDS011;15200;50.570;7.244;2023-03-14T14:55:49;1.80;;;0.70;;
27833;SDS011;15200;50.570;7.244;2023-03-14T14:58:20;3.97;;;1.10;;
27833;SDS011;15200;50.570;7.244;2023-03-14T15:00:55;3.20;;;1.13;;
27833;SDS011;15200;50.570;7.244;2023-03-14T15:03:18;5.50;;;1.43;;
27833;SDS011;15200;50.570;7.244;2023-03-14T15:05:46;4.17;;;1.00;;
27833;SDS011;15200;50.570;7.244;2023-03-14T15:08:13;4.57;;;1.37;;
27833;SDS011;15200;50.570;7.244;2023-03-14T15:10:40;8.87;;;1.67;;
27833;SDS011;15200;50.570;7.244;2023-03-14T15:13:08;4.23;;;1.10;;
27833;SDS011;15200;50.570;7.244;2023-03-14T15:15:36;3.27;;;1.10;;
27833;SDS011;15200;50.570;7.244;2023-03-14T15:18:14;10.30;;;1.70;;
27833;SDS011;15200;50.570;7.244;2023-03-14T15:20:32;8.30;;;1.73;;
27833;SDS011;15200;50.570;7.244;2023-03-14T15:23:00;6.20;;;1.53;;
27833;SDS011;15200;50.570;7.244;2023-03-14T15:25:27;7.63;;;1.73;;
27833;SDS011;15200;50.570;7.244;2023-03-14T15:27:54;4.87;;;1.43;;
27833;SDS011;15200;50.570;7.244;2023-03-14T15:30:22;4.33;;;1.10;;
27833;SDS011;15200;50.570;7.244;2023-03-14T15:32:49;8.30;;;1.70;;
27833;SDS011;15200;50.570;7.244;2023-03-14T15:35:16;4.47;;;1.60;;
27833;SDS011;15200;50.570;7.244;2023-03-14T15:37:44;7.30;;;1.83;;
27833;SDS011;15200;50.570;7.244;2023-03-14T15:40:12;12.73;;;2.60;;
27833;SDS011;15200;50.570;7.244;2023-03-14T15:42:40;7.53;;;2.13;;
27833;SDS011;15200;50.570;7.244;2023-03-14T15:45:08;12.63;;;2.23;;
27833;SDS011;15200;50.570;7.244;2023-03-14T15:47:38;8.53;;;2.00;;
27833;SDS011;15200;50.570;7.244;2023-03-14T15:50:06;7.27;;;2.10;;
27833;SDS011;15200;50.570;7.244;2023-03-14T15:52:35;5.33;;;1.87;;
27833;SDS011;15200;50.570;7.244;2023-03-14T15:55:02;7.20;;;2.00;;